Prosper, TX

8:11 PM CDT on April 18, 2015 (GMT -0500)
Willow Ridge | | Change Station
CLOSE
Current Station
Personal Weather Station
Location: Prosper, TX
Elevation: 757 ft
Nearby Weather Stations
Active Advisory: Severe Thunderstorm Watch

Elev 757 ft 33.23 °N, 96.79 °W | Updated 9 seconds ago

Mostly Cloudy
Mostly Cloudy
71.4 °F
Feels Like 75 °F
N
0.0
Wind Variable Wind from East
Gusts 0.0 mph

Today
High -- | Low -- °F
--% Chance of Precip.
Yesterday
High -- | Low -- °F
Precip. -- in
6:53 AM 7:59 PM
New Moon, 0% visible
Pressure 29.76 in
Visibility 10.0 miles
Clouds Scattered Clouds 4100 ft
Heat Index 75 °F
Dew Point 61 °F
Humidity 69%
Rainfall 0.00 in
Snow Depth Not available.
UV 0 out of 12
Pollen 8.20 out of 12
Air Quality Not available.
Flu Activity Local Activity
METAR KTKI 190053Z 00000KT 10SM SCT041 23/18 A2976 RMK AO2 LTG DSNT SW AND W SLP078 T02280178

More Conditions Fewer Conditions

Pressure 29.76 in
Visibility 10.0 miles
Clouds Scattered Clouds 4100 ft
Heat Index 75 °F
Dew Point 61 °F
Humidity 69%
Rainfall 0.00 in
Snow Depth Not available.
UV 0 out of 12
Pollen 8.20 out of 12
Air Quality Not available.
Flu Activity Local Activity
METAR KTKI 190053Z 00000KT 10SM SCT041 23/18 A2976 RMK AO2 LTG DSNT SW AND W SLP078 T02280178

More Conditions Fewer Conditions

10-Day Weather Forecast

Almanac

Astronomy

Apr. 18, 2015 Rise Set
Actual Time
Civil Twilight
Nautical Twilight
Astronomical Twilight
Moon
Length of Visible Light
Length of Day
Tomorrow will be .
, % of the Moon is Illuminated

Today's Extremes

State Highs State Lows

Community

WunderPhotos

Upload Photos

1,814,611 photos uploaded!

WunderBlogs® & News

Nearby

Air Quality

  Air Quality AQ Index Pollutant
Not available.

Snow Depth

Station Depth Elevation

Earthquake Activity

City Distance Mag. Time & Date
Minimum magnitude displayed is 2.5.

Coastal Water Temperatures

Place Temperature

Stations

Nearby Weather Stations

Station Location Temp. Windchill Dew Point Humidity Wind Precip. Elev Updated Type
                   
Severe Thunderstorm Watch
Statement as of 8:03 PM CDT on April 18, 2015

Severe Thunderstorm Watch 76 remains in effect until 100 am CDT
for the following locations


TX
. Texas counties included are

Anderson Bell Collin
Cooke Dallas Denton
Ellis Falls Fannin
Freestone Grayson Henderson
Hill Hunt Johnson
Kaufman Leon Limestone
McLennan Milam Navarro
rains Robertson Rockwall
Tarrant Van Zandt